Time;durP1;ratioP1;P1;durP2;ratioP2;P2;SDS_P1;SDS_P2;PMS_P1;PMS_P2;Temp;Humidity;BMP_temperature;BMP_pressure;BME280_temperature;BME280_humidity;BME280_pressure;Samples;Min_cycle;Max_cycle;Signal;HPM_P1;HPM_P2
2023/07/28 00:01:18;;;;;;;74.60;8.70;;;;;;;;;;5000189;28;20414;-75
2023/07/28 00:03:44;;;;;;;44.53;6.45;;;;;;;;;;5003240;28;20049;-72
2023/07/28 00:06:11;;;;;;;82.30;8.95;;;;;;;;;;5001746;28;20050;-72
2023/07/28 00:08:37;;;;;;;72.13;8.65;;;;;;;;;;5001640;28;20050;-70
2023/07/28 00:11:08;;;;;;;59.45;7.75;;;;;;;;;;4998328;28;20056;-71
2023/07/28 00:13:35;;;;;;;72.47;8.85;;;;;;;;;;4998251;28;20404;-71
2023/07/28 00:16:01;;;;;;;82.68;8.95;;;;;;;;;;5004037;28;20042;-71
2023/07/28 00:18:28;;;;;;;76.93;9.02;;;;;;;;;;4999291;28;20053;-72
2023/07/28 00:20:54;;;;;;;95.47;10.45;;;;;;;;;;4999057;28;20767;-72
2023/07/28 00:23:21;;;;;;;96.55;11.20;;;;;;;;;;4998686;28;20129;-77
2023/07/28 00:25:48;;;;;;;67.93;8.57;;;;;;;;;;4996772;28;20045;-74
2023/07/28 00:28:14;;;;;;;72.20;8.90;;;;;;;;;;4987389;28;20050;-76
2023/07/28 00:30:41;;;;;;;80.57;9.15;;;;;;;;;;5002962;28;20050;-73
2023/07/28 00:33:07;;;;;;;71.95;8.27;;;;;;;;;;4999532;28;20614;-72
2023/07/28 00:35:36;;;;;;;51.35;7.50;;;;;;;;;;4988598;28;20062;-71
2023/07/28 00:38:02;;;;;;;71.05;8.57;;;;;;;;;;4977340;28;20050;-72
2023/07/28 00:40:29;;;;;;;64.82;8.80;;;;;;;;;;4997574;28;20739;-73
2023/07/28 00:42:55;;;;;;;51.05;6.65;;;;;;;;;;4993088;28;20038;-75
2023/07/28 00:45:22;;;;;;;90.72;9.60;;;;;;;;;;4981142;28;20042;-76
2023/07/28 00:47:49;;;;;;;64.18;8.25;;;;;;;;;;4990664;28;20050;-71
2023/07/28 00:50:16;;;;;;;69.25;8.45;;;;;;;;;;4999770;28;20440;-77
2023/07/28 00:52:43;;;;;;;77.22;8.93;;;;;;;;;;4972897;28;20046;-75
2023/07/28 00:55:09;;;;;;;54.90;7.18;;;;;;;;;;4999214;28;20381;-73
2023/07/28 00:57:38;;;;;;;68.65;8.95;;;;;;;;;;4978019;28;20042;-76
2023/07/28 01:00:06;;;;;;;82.80;9.93;;;;;;;;;;4998465;28;20054;-75
2023/07/28 01:02:32;;;;;;;66.45;8.07;;;;;;;;;;5001811;28;20050;-72
2023/07/28 01:04:59;;;;;;;67.28;8.45;;;;;;;;;;4984427;28;20379;-71
2023/07/28 01:07:28;;;;;;;98.53;10.43;;;;;;;;;;5003327;28;20049;-74
2023/07/28 01:10:31;;;;;;;64.57;8.00;;;;;;;;;;4983718;28;20429;-73
2023/07/28 01:12:58;;;;;;;89.25;9.52;;;;;;;;;;4947134;28;20187;-71
2023/07/28 01:15:25;;;;;;;91.75;9.52;;;;;;;;;;4915508;29;20052;-72
2023/07/28 01:17:52;;;;;;;64.10;8.18;;;;;;;;;;4933417;29;20703;-72
2023/07/28 01:20:19;;;;;;;49.40;6.78;;;;;;;;;;4931528;29;20059;-71
2023/07/28 01:22:46;;;;;;;69.55;7.85;;;;;;;;;;4947163;28;20050;-71
2023/07/28 01:25:15;;;;;;;62.92;7.60;;;;;;;;;;4924972;28;20788;-72
2023/07/28 01:27:42;;;;;;;61.80;7.97;;;;;;;;;;4950239;28;20063;-75
2023/07/28 01:30:09;;;;;;;98.88;10.00;;;;;;;;;;4950257;28;20098;-73
2023/07/28 01:32:36;;;;;;;77.13;8.75;;;;;;;;;;4951174;28;20062;-72
2023/07/28 01:35:03;;;;;;;71.90;8.63;;;;;;;;;;4949776;28;20055;-74
2023/07/28 01:37:30;;;;;;;60.53;7.72;;;;;;;;;;4949690;28;20054;-74
2023/07/28 01:39:57;;;;;;;45.53;6.90;;;;;;;;;;4949700;28;20083;-75
2023/07/28 01:42:23;;;;;;;86.35;9.48;;;;;;;;;;4966251;28;20051;-72
2023/07/28 01:44:50;;;;;;;74.55;8.65;;;;;;;;;;4951588;28;20054;-75
2023/07/28 01:47:17;;;;;;;64.22;7.78;;;;;;;;;;4976401;28;20149;-81
2023/07/28 01:49:43;;;;;;;70.90;8.35;;;;;;;;;;4986270;28;20480;-78
2023/07/28 01:52:10;;;;;;;65.57;8.07;;;;;;;;;;4982317;28;20046;-71
2023/07/28 01:54:36;;;;;;;47.03;6.93;;;;;;;;;;4982929;28;20042;-76
2023/07/28 01:57:04;;;;;;;82.05;9.18;;;;;;;;;;5001211;28;20100;-75
2023/07/28 01:59:30;;;;;;;49.83;7.13;;;;;;;;;;4994404;28;20068;-72
2023/07/28 02:01:58;;;;;;;64.47;8.05;;;;;;;;;;5007739;23;20065;-63
2023/07/28 02:04:24;;;;;;;46.78;6.70;;;;;;;;;;5000022;28;20507;-61
2023/07/28 02:06:51;;;;;;;75.35;8.75;;;;;;;;;;4991971;28;20056;-63
2023/07/28 02:09:18;;;;;;;119.88;11.90;;;;;;;;;;5002420;28;20056;-63
2023/07/28 02:11:44;;;;;;;58.38;7.40;;;;;;;;;;4984290;28;20044;-63
2023/07/28 02:14:11;;;;;;;30.75;5.40;;;;;;;;;;4998314;28;20101;-64
2023/07/28 02:16:38;;;;;;;53.25;7.68;;;;;;;;;;5002240;28;20045;-64
2023/07/28 02:19:05;;;;;;;76.78;8.27;;;;;;;;;;4992036;28;20499;-63
2023/07/28 02:21:32;;;;;;;60.38;7.50;;;;;;;;;;5001568;28;20066;-65
2023/07/28 02:23:58;;;;;;;78.82;8.43;;;;;;;;;;5000085;28;20046;-63
2023/07/28 02:26:25;;;;;;;65.72;7.80;;;;;;;;;;5000812;28;20068;-61
2023/07/28 02:28:51;;;;;;;58.80;6.68;;;;;;;;;;5002487;28;20049;-64
2023/07/28 02:31:18;;;;;;;53.97;7.25;;;;;;;;;;5004943;28;20050;-63
2023/07/28 02:33:45;;;;;;;68.00;7.97;;;;;;;;;;5000731;28;20125;-64
2023/07/28 02:36:11;;;;;;;76.25;8.25;;;;;;;;;;4984281;28;20674;-65
2023/07/28 02:38:38;;;;;;;30.75;5.88;;;;;;;;;;4998856;28;20050;-62
2023/07/28 02:41:04;;;;;;;42.25;6.55;;;;;;;;;;5002357;28;20046;-62
2023/07/28 02:43:31;;;;;;;53.28;7.65;;;;;;;;;;4999750;28;20460;-64
2023/07/28 02:45:58;;;;;;;51.38;6.82;;;;;;;;;;5005407;28;20041;-67
2023/07/28 02:48:25;;;;;;;61.95;7.05;;;;;;;;;;5004582;28;20069;-63
2023/07/28 02:50:52;;;;;;;63.40;7.28;;;;;;;;;;4982645;28;20057;-62
2023/07/28 02:53:18;;;;;;;53.40;6.65;;;;;;;;;;4981806;28;20049;-61
2023/07/28 02:55:46;;;;;;;52.88;6.75;;;;;;;;;;4990802;28;20443;-61
2023/07/28 02:58:13;;;;;;;48.10;6.20;;;;;;;;;;4982880;28;20064;-62
2023/07/28 03:00:41;;;;;;;53.72;7.05;;;;;;;;;;4983649;28;20511;-62
2023/07/28 03:03:10;;;;;;;102.13;10.25;;;;;;;;;;4987554;28;20058;-64
2023/07/28 03:05:38;;;;;;;36.67;5.88;;;;;;;;;;4996168;28;20675;-63
2023/07/28 03:08:19;;;;;;;61.40;7.53;;;;;;;;;;4963050;28;20042;-62
2023/07/28 03:10:45;;;;;;;54.80;6.90;;;;;;;;;;4977739;28;20042;-61
2023/07/28 03:13:12;;;;;;;62.30;6.85;;;;;;;;;;4980962;28;20054;-62
2023/07/28 03:15:39;;;;;;;47.05;6.15;;;;;;;;;;4988788;28;20042;-63
2023/07/28 03:18:06;;;;;;;107.30;10.55;;;;;;;;;;4980747;28;20053;-62
2023/07/28 03:20:32;;;;;;;58.13;7.40;;;;;;;;;;4987213;28;20049;-63
2023/07/28 03:22:59;;;;;;;67.00;7.32;;;;;;;;;;4977868;28;20060;-63
2023/07/28 03:25:26;;;;;;;57.47;7.07;;;;;;;;;;4974928;28;20397;-61
2023/07/28 03:27:53;;;;;;;47.38;6.40;;;;;;;;;;4977503;28;20051;-61
2023/07/28 03:30:20;;;;;;;50.17;6.93;;;;;;;;;;4988900;28;20082;-62
2023/07/28 03:32:46;;;;;;;83.13;8.38;;;;;;;;;;4981093;28;20057;-62
2023/07/28 03:35:13;;;;;;;53.92;7.68;;;;;;;;;;4979495;28;20062;-63
2023/07/28 03:37:45;;;;;;;67.70;8.13;;;;;;;;;;4959437;28;20053;-62
2023/07/28 03:40:12;;;;;;;69.32;8.02;;;;;;;;;;4985577;28;20058;-65
2023/07/28 03:42:46;;;;;;;69.30;7.78;;;;;;;;;;4977191;28;20385;-61
2023/07/28 03:45:13;;;;;;;130.60;11.85;;;;;;;;;;4979294;28;20042;-63
2023/07/28 03:47:40;;;;;;;44.13;6.55;;;;;;;;;;4969054;28;20038;-61
2023/07/28 03:50:07;;;;;;;37.00;6.13;;;;;;;;;;4979449;28;20062;-62
2023/07/28 03:52:33;;;;;;;70.22;8.30;;;;;;;;;;4975095;28;20039;-63
2023/07/28 03:55:00;;;;;;;74.47;8.80;;;;;;;;;;4995979;28;20051;-64
2023/07/28 03:57:26;;;;;;;67.85;7.93;;;;;;;;;;4988935;28;20081;-63
2023/07/28 03:59:53;;;;;;;62.25;7.57;;;;;;;;;;4979558;28;20098;-61
2023/07/28 04:02:19;;;;;;;41.28;5.93;;;;;;;;;;4984621;28;20050;-62
2023/07/28 04:04:46;;;;;;;61.90;7.65;;;;;;;;;;4978924;28;20043;-61
2023/07/28 04:07:12;;;;;;;68.40;7.88;;;;;;;;;;4972588;28;20094;-62
2023/07/28 04:09:39;;;;;;;64.57;8.00;;;;;;;;;;4976478;28;20405;-61
2023/07/28 04:12:06;;;;;;;80.93;9.38;;;;;;;;;;4988279;28;20101;-62
2023/07/28 04:14:32;;;;;;;60.67;7.70;;;;;;;;;;4988387;28;20148;-62
2023/07/28 04:16:59;;;;;;;71.60;8.25;;;;;;;;;;4981321;28;20043;-62
2023/07/28 04:19:25;;;;;;;39.85;6.47;;;;;;;;;;4987268;28;20361;-62
2023/07/28 04:21:52;;;;;;;50.70;6.22;;;;;;;;;;4987079;28;20050;-63
2023/07/28 04:24:19;;;;;;;126.22;12.18;;;;;;;;;;4987209;28;20109;-65
2023/07/28 04:26:48;;;;;;;72.53;8.40;;;;;;;;;;4987959;28;20085;-63
2023/07/28 04:29:16;;;;;;;67.47;7.60;;;;;;;;;;4958189;28;20061;-62
2023/07/28 04:31:43;;;;;;;56.33;7.60;;;;;;;;;;4979565;28;20069;-63
2023/07/28 04:34:13;;;;;;;67.53;8.00;;;;;;;;;;4978128;28;20133;-64
2023/07/28 04:37:02;;;;;;;63.38;7.57;;;;;;;;;;4972830;28;20133;-62
2023/07/28 04:39:40;;;;;;;52.35;6.50;;;;;;;;;;4975516;28;20053;-62
2023/07/28 04:42:09;;;;;;;94.57;9.98;;;;;;;;;;4978140;28;20050;-61
2023/07/28 04:44:40;;;;;;;65.22;7.50;;;;;;;;;;4985481;28;20047;-63
2023/07/28 04:47:07;;;;;;;56.30;7.20;;;;;;;;;;4962758;28;20492;-64
2023/07/28 04:49:34;;;;;;;46.35;6.55;;;;;;;;;;4983148;28;20066;-61
2023/07/28 04:52:06;;;;;;;58.85;6.70;;;;;;;;;;4979426;28;20047;-64
2023/07/28 04:54:52;;;;;;;92.10;9.82;;;;;;;;;;4980389;28;20190;-61
2023/07/28 04:57:19;;;;;;;92.63;9.15;;;;;;;;;;4962522;28;20061;-63
2023/07/28 04:59:46;;;;;;;63.65;7.30;;;;;;;;;;4978104;28;20453;-63
2023/07/28 05:02:12;;;;;;;38.20;6.03;;;;;;;;;;4983037;28;20137;-62
2023/07/28 05:04:39;;;;;;;64.57;7.72;;;;;;;;;;4993482;28;20484;-63
2023/07/28 05:07:06;;;;;;;70.35;7.78;;;;;;;;;;4985202;28;20106;-65
2023/07/28 05:09:32;;;;;;;50.38;6.40;;;;;;;;;;4994962;28;20047;-64
2023/07/28 05:11:59;;;;;;;49.85;6.68;;;;;;;;;;4988299;28;20058;-71
2023/07/28 05:14:26;;;;;;;60.85;7.00;;;;;;;;;;4976395;28;20075;-62
2023/07/28 05:16:52;;;;;;;98.60;9.13;;;;;;;;;;4982561;28;20054;-61
2023/07/28 05:19:33;;;;;;;58.92;6.70;;;;;;;;;;4980710;28;20130;-62
2023/07/28 05:22:35;;;;;;;45.85;5.95;;;;;;;;;;4946904;29;20047;-65
2023/07/28 05:25:01;;;;;;;81.03;8.68;;;;;;;;;;4930539;29;20166;-67
2023/07/28 05:27:31;;;;;;;75.00;7.82;;;;;;;;;;4931301;29;20035;-65
2023/07/28 05:29:57;;;;;;;79.10;7.97;;;;;;;;;;4932434;29;20055;-63
2023/07/28 05:32:24;;;;;;;81.25;8.73;;;;;;;;;;4928118;29;20491;-69
2023/07/28 05:35:09;;;;;;;60.38;7.13;;;;;;;;;;4926639;29;20131;-63
2023/07/28 05:37:36;;;;;;;69.40;7.97;;;;;;;;;;4930846;29;20192;-64
2023/07/28 05:40:03;;;;;;;76.15;8.55;;;;;;;;;;4926808;29;20051;-62
2023/07/28 05:42:32;;;;;;;63.03;7.63;;;;;;;;;;4931033;29;20114;-63
2023/07/28 05:44:58;;;;;;;60.15;7.22;;;;;;;;;;4906310;29;20051;-65
2023/07/28 05:47:26;;;;;;;72.85;7.70;;;;;;;;;;4930826;29;20512;-63
2023/07/28 05:49:55;;;;;;;56.58;7.57;;;;;;;;;;4944268;29;20051;-62
2023/07/28 05:52:22;;;;;;;63.20;7.38;;;;;;;;;;4940118;29;20554;-63
2023/07/28 05:54:49;;;;;;;67.45;6.97;;;;;;;;;;4930525;29;20051;-61
2023/07/28 05:57:16;;;;;;;117.75;10.90;;;;;;;;;;4968684;28;20082;-64
2023/07/28 05:59:43;;;;;;;57.90;6.43;;;;;;;;;;4992816;28;20448;-64
2023/07/28 06:02:09;;;;;;;50.13;6.05;;;;;;;;;;4985173;28;20073;-61
2023/07/28 06:04:46;;;;;;;58.50;6.93;;;;;;;;;;4981903;28;20049;-63
2023/07/28 06:07:12;;;;;;;54.65;7.47;;;;;;;;;;4980390;28;20092;-62
2023/07/28 06:09:40;;;;;;;55.28;6.90;;;;;;;;;;4978899;28;20047;-65
2023/07/28 06:12:06;;;;;;;83.95;8.40;;;;;;;;;;4990919;28;20404;-65
2023/07/28 06:14:33;;;;;;;59.08;7.03;;;;;;;;;;4981037;28;20057;-63
2023/07/28 06:17:01;;;;;;;59.83;6.13;;;;;;;;;;4987829;28;20042;-62
2023/07/28 06:19:30;;;;;;;53.92;6.18;;;;;;;;;;4963924;28;20042;-63
2023/07/28 06:21:56;;;;;;;61.30;6.88;;;;;;;;;;4979006;28;20042;-63
2023/07/28 06:24:26;;;;;;;78.07;8.35;;;;;;;;;;4973596;28;20046;-64
2023/07/28 06:26:52;;;;;;;35.58;5.13;;;;;;;;;;4983391;28;20050;-63
2023/07/28 06:29:20;;;;;;;79.75;8.18;;;;;;;;;;4987552;28;20050;-65
2023/07/28 06:31:46;;;;;;;45.40;6.10;;;;;;;;;;4986984;28;20050;-61
2023/07/28 06:34:13;;;;;;;65.25;6.72;;;;;;;;;;4979635;28;20100;-63
2023/07/28 06:36:39;;;;;;;54.78;6.72;;;;;;;;;;4980346;28;20070;-63
2023/07/28 06:39:06;;;;;;;126.28;10.82;;;;;;;;;;4979666;28;20038;-58
2023/07/28 06:41:33;;;;;;;91.35;8.55;;;;;;;;;;4981331;28;20424;-61
2023/07/28 06:44:01;;;;;;;79.85;8.05;;;;;;;;;;4983006;28;20050;-59
2023/07/28 06:46:29;;;;;;;73.93;7.63;;;;;;;;;;4985471;28;20049;-59
2023/07/28 06:48:56;;;;;;;72.45;7.60;;;;;;;;;;4981716;28;20507;-60
2023/07/28 06:51:23;;;;;;;85.85;8.82;;;;;;;;;;4986946;28;20177;-60
2023/07/28 06:53:50;;;;;;;83.20;8.35;;;;;;;;;;4979893;28;20105;-61
2023/07/28 06:56:17;;;;;;;50.58;6.30;;;;;;;;;;4987646;28;20066;-63
2023/07/28 06:58:43;;;;;;;59.10;6.45;;;;;;;;;;4979849;28;20039;-66
2023/07/28 07:01:23;;;;;;;67.43;7.15;;;;;;;;;;4985526;28;20756;-62
2023/07/28 07:03:50;;;;;;;73.93;8.13;;;;;;;;;;4980375;28;20053;-65
2023/07/28 07:06:17;;;;;;;122.35;10.52;;;;;;;;;;4989114;28;20081;-64
2023/07/28 07:08:43;;;;;;;71.55;7.13;;;;;;;;;;4980263;28;20453;-65
2023/07/28 07:11:10;;;;;;;48.33;6.18;;;;;;;;;;4982769;28;20042;-70
2023/07/28 07:13:37;;;;;;;71.88;7.28;;;;;;;;;;4974009;28;20042;-60
2023/07/28 07:16:03;;;;;;;52.00;5.85;;;;;;;;;;4985322;28;20492;-63
2023/07/28 07:18:30;;;;;;;69.38;7.55;;;;;;;;;;4983804;28;20043;-65
2023/07/28 07:21:00;;;;;;;64.40;6.90;;;;;;;;;;4980652;28;20051;-63
2023/07/28 07:23:27;;;;;;;61.03;7.20;;;;;;;;;;4986078;28;20054;-61
2023/07/28 07:25:53;;;;;;;69.60;7.25;;;;;;;;;;4980684;28;20460;-64
2023/07/28 07:28:22;;;;;;;168.98;12.70;;;;;;;;;;4980791;28;20039;-62
2023/07/28 07:30:48;;;;;;;68.47;7.10;;;;;;;;;;4984432;28;20338;-63
2023/07/28 07:33:15;;;;;;;108.57;10.02;;;;;;;;;;4981860;28;20070;-63
2023/07/28 07:35:41;;;;;;;83.70;8.57;;;;;;;;;;4980666;28;20047;-63
2023/07/28 07:38:09;;;;;;;60.90;6.22;;;;;;;;;;4979079;28;20050;-60
2023/07/28 07:40:36;;;;;;;47.30;5.93;;;;;;;;;;4974945;28;20098;-61
2023/07/28 07:43:03;;;;;;;66.80;7.53;;;;;;;;;;4978970;28;20097;-63
2023/07/28 07:45:30;;;;;;;51.88;6.72;;;;;;;;;;4973231;28;20078;-63
2023/07/28 07:47:57;;;;;;;86.50;8.43;;;;;;;;;;4982044;28;20043;-63
2023/07/28 07:50:24;;;;;;;84.15;8.65;;;;;;;;;;4978710;28;20054;-63
2023/07/28 07:52:50;;;;;;;62.35;6.82;;;;;;;;;;4977587;28;20055;-64
2023/07/28 07:55:17;;;;;;;79.80;8.40;;;;;;;;;;4981371;28;20447;-65
2023/07/28 07:57:44;;;;;;;75.63;8.82;;;;;;;;;;4987076;28;20440;-65
2023/07/28 08:00:11;;;;;;;86.70;9.07;;;;;;;;;;4977415;28;20050;-66
2023/07/28 08:02:40;;;;;;;51.13;6.97;;;;;;;;;;4984421;28;20403;-66
2023/07/28 08:05:10;;;;;;;62.60;8.30;;;;;;;;;;4982162;28;20042;-62
2023/07/28 08:07:37;;;;;;;53.33;6.85;;;;;;;;;;4979474;28;20042;-62
2023/07/28 08:10:04;;;;;;;47.10;7.28;;;;;;;;;;4976620;28;20053;-63
2023/07/28 08:12:30;;;;;;;73.05;8.60;;;;;;;;;;4972803;28;20070;-63
2023/07/28 08:14:57;;;;;;;55.92;7.70;;;;;;;;;;4978779;28;20065;-63
2023/07/28 08:17:23;;;;;;;64.32;8.45;;;;;;;;;;4985180;28;20454;-66
2023/07/28 08:19:50;;;;;;;85.03;9.20;;;;;;;;;;4979559;28;20050;-64
2023/07/28 08:22:17;;;;;;;60.30;8.40;;;;;;;;;;4981553;28;20570;-63
2023/07/28 08:24:43;;;;;;;66.70;9.15;;;;;;;;;;4961220;28;20131;-68
2023/07/28 08:27:10;;;;;;;126.72;13.23;;;;;;;;;;4978989;28;20105;-65
2023/07/28 08:29:36;;;;;;;52.53;8.05;;;;;;;;;;4979115;28;20448;-66
2023/07/28 08:32:03;;;;;;;52.80;8.27;;;;;;;;;;4983485;28;20114;-67
2023/07/28 08:34:30;;;;;;;80.75;10.10;;;;;;;;;;4982398;28;20030;-64
2023/07/28 08:36:56;;;;;;;73.70;9.18;;;;;;;;;;4962181;28;20042;-66
2023/07/28 08:39:23;;;;;;;155.30;14.75;;;;;;;;;;4986868;28;20050;-67
2023/07/28 08:42:02;;;;;;;73.82;9.18;;;;;;;;;;4979577;28;20046;-66
2023/07/28 08:44:32;;;;;;;50.03;7.47;;;;;;;;;;4977878;28;20146;-66
2023/07/28 08:47:04;;;;;;;104.40;11.02;;;;;;;;;;4962750;28;20183;-67
2023/07/28 08:49:36;;;;;;;58.35;8.85;;;;;;;;;;4968320;28;20058;-68
2023/07/28 08:52:03;;;;;;;40.97;6.53;;;;;;;;;;4975931;28;20085;-68
2023/07/28 08:54:30;;;;;;;79.43;9.90;;;;;;;;;;4986372;28;20117;-70
2023/07/28 08:56:59;;;;;;;69.10;13.57;;;;;;;;;;4979164;28;20063;-62
2023/07/28 08:59:27;;;;;;;67.57;8.60;;;;;;;;;;4975426;28;20046;-63
2023/07/28 09:01:55;;;;;;;93.63;10.57;;;;;;;;;;4982492;28;20065;-68
2023/07/28 09:04:22;;;;;;;85.20;10.00;;;;;;;;;;4979438;28;20043;-63
2023/07/28 09:06:49;;;;;;;81.22;10.32;;;;;;;;;;4979108;28;20053;-65
2023/07/28 09:09:17;;;;;;;189.13;17.90;;;;;;;;;;4978251;28;20038;-62
2023/07/28 09:11:48;;;;;;;64.75;7.95;;;;;;;;;;4975051;28;20050;-66
2023/07/28 09:14:16;;;;;;;66.13;8.75;;;;;;;;;;4984950;28;20042;-66
2023/07/28 09:16:43;;;;;;;81.72;10.05;;;;;;;;;;4981213;28;20450;-63
2023/07/28 09:19:10;;;;;;;52.72;8.00;;;;;;;;;;4980825;28;20141;-64
2023/07/28 09:21:37;;;;;;;61.83;9.15;;;;;;;;;;4979273;28;20569;-58
2023/07/28 09:24:06;;;;;;;81.57;10.50;;;;;;;;;;4978760;28;20054;-67
2023/07/28 09:26:46;;;;;;;67.07;9.68;;;;;;;;;;4986859;28;20501;-62
2023/07/28 09:29:12;;;;;;;77.80;10.23;;;;;;;;;;4996408;28;20046;-63
2023/07/28 09:31:39;;;;;;;52.80;7.95;;;;;;;;;;4987756;28;20066;-61
2023/07/28 09:34:09;;;;;;;32.83;6.97;;;;;;;;;;4983529;28;20509;-63
2023/07/28 09:36:38;;;;;;;102.65;11.75;;;;;;;;;;4977276;28;20052;-63
2023/07/28 09:39:07;;;;;;;79.47;10.50;;;;;;;;;;4989978;28;20506;-70
2023/07/28 09:41:38;;;;;;;45.17;7.95;;;;;;;;;;4981220;28;20420;-68
2023/07/28 09:44:05;;;;;;;63.58;9.25;;;;;;;;;;4974949;28;20472;-62
2023/07/28 09:46:33;;;;;;;64.78;9.52;;;;;;;;;;4981843;28;20039;-64
2023/07/28 09:49:04;;;;;;;69.43;9.45;;;;;;;;;;4983185;28;20057;-65
2023/07/28 09:51:32;;;;;;;74.05;10.18;;;;;;;;;;4981622;28;20668;-62
2023/07/28 09:54:11;;;;;;;45.70;8.60;;;;;;;;;;4981792;28;20469;-63
2023/07/28 09:56:37;;;;;;;75.00;9.95;;;;;;;;;;4987544;28;20055;-60
2023/07/28 09:59:10;;;;;;;72.93;11.65;;;;;;;;;;4989759;28;20042;-62
2023/07/28 10:01:37;;;;;;;69.75;10.15;;;;;;;;;;4986069;28;20126;-62
2023/07/28 10:04:04;;;;;;;67.82;10.18;;;;;;;;;;4985679;28;20046;-64
2023/07/28 10:06:33;;;;;;;66.47;9.60;;;;;;;;;;4983311;28;20053;-63
2023/07/28 10:09:00;;;;;;;72.25;9.57;;;;;;;;;;4988850;28;20102;-65
2023/07/28 10:11:27;;;;;;;92.47;11.82;;;;;;;;;;4978614;28;20566;-62
2023/07/28 10:13:54;;;;;;;60.58;9.55;;;;;;;;;;4983048;28;20114;-63
2023/07/28 10:16:29;;;;;;;62.85;9.07;;;;;;;;;;4985938;28;20042;-63
2023/07/28 10:18:58;;;;;;;58.25;9.10;;;;;;;;;;4983595;28;20044;-62
2023/07/28 10:21:27;;;;;;;78.13;10.35;;;;;;;;;;4981431;28;20117;-62
2023/07/28 10:23:55;;;;;;;89.65;11.85;;;;;;;;;;4981125;28;20050;-65
2023/07/28 10:26:51;;;;;;;61.47;9.25;;;;;;;;;;4982397;28;20081;-63
2023/07/28 10:29:19;;;;;;;68.55;10.10;;;;;;;;;;4970151;28;20133;-70
2023/07/28 10:31:52;;;;;;;65.97;9.57;;;;;;;;;;4987002;28;20038;-66
2023/07/28 10:34:21;;;;;;;74.78;10.35;;;;;;;;;;4988873;28;20039;-68
2023/07/28 10:36:56;;;;;;;84.10;11.20;;;;;;;;;;4988236;28;20161;-68
2023/07/28 10:39:22;;;;;;;183.15;18.73;;;;;;;;;;4978995;28;20058;-67
2023/07/28 10:42:03;;;;;;;92.50;12.18;;;;;;;;;;4984698;28;20054;-67
2023/07/28 10:44:30;;;;;;;86.07;11.40;;;;;;;;;;4979673;28;20050;-67
2023/07/28 10:46:56;;;;;;;27.05;6.55;;;;;;;;;;4986624;28;20109;-70
2023/07/28 10:49:27;;;;;;;27.73;6.57;;;;;;;;;;4988032;28;20094;-63
2023/07/28 10:51:54;;;;;;;44.05;8.15;;;;;;;;;;4985650;28;20038;-62
2023/07/28 10:54:21;;;;;;;109.05;13.82;;;;;;;;;;4983000;28;20042;-64
2023/07/28 10:56:48;;;;;;;185.50;20.75;;;;;;;;;;4985890;28;20054;-63
2023/07/28 10:59:15;;;;;;;26.08;6.68;;;;;;;;;;4983838;28;20054;-64
2023/07/28 11:01:42;;;;;;;25.27;7.03;;;;;;;;;;4986036;28;20054;-65
2023/07/28 11:04:19;;;;;;;46.72;8.65;;;;;;;;;;4984333;28;20046;-63
2023/07/28 11:06:47;;;;;;;42.72;7.97;;;;;;;;;;4987348;28;20073;-64
2023/07/28 11:09:15;;;;;;;107.18;12.82;;;;;;;;;;4983954;28;20080;-66
2023/07/28 11:11:42;;;;;;;23.27;6.90;;;;;;;;;;4985449;28;20043;-64
2023/07/28 11:14:14;;;;;;;14.98;6.32;;;;;;;;;;4983162;28;20082;-63
2023/07/28 11:16:41;;;;;;;34.55;7.32;;;;;;;;;;4990536;28;20042;-64
2023/07/28 11:19:10;;;;;;;37.40;9.60;;;;;;;;;;4984686;28;20046;-66
2023/07/28 11:21:40;;;;;;;22.05;7.63;;;;;;;;;;4986943;28;20034;-64
2023/07/28 11:24:10;;;;;;;45.95;8.40;;;;;;;;;;4986219;28;20062;-63
2023/07/28 11:26:38;;;;;;;22.67;6.55;;;;;;;;;;4984741;28;20047;-63
2023/07/28 11:29:05;;;;;;;26.23;7.22;;;;;;;;;;4985259;28;20053;-64
2023/07/28 11:31:33;;;;;;;38.20;6.88;;;;;;;;;;4969151;28;20065;-64
2023/07/28 11:34:00;;;;;;;29.80;6.38;;;;;;;;;;4980646;28;20046;-65
2023/07/28 11:36:27;;;;;;;60.50;8.55;;;;;;;;;;4982301;28;20056;-65
2023/07/28 11:38:55;;;;;;;33.28;6.93;;;;;;;;;;4990857;28;20047;-68
2023/07/28 11:41:22;;;;;;;30.08;6.55;;;;;;;;;;4985348;28;20464;-65
2023/07/28 11:43:49;;;;;;;18.48;5.55;;;;;;;;;;4982285;28;20030;-64
2023/07/28 11:46:36;;;;;;;39.35;7.32;;;;;;;;;;4989277;28;20042;-66
2023/07/28 11:49:07;;;;;;;29.63;6.63;;;;;;;;;;4999538;28;20035;-64
2023/07/28 11:51:38;;;;;;;44.97;7.63;;;;;;;;;;4989915;28;20069;-64
2023/07/28 11:54:06;;;;;;;29.35;6.40;;;;;;;;;;4989140;28;20043;-68
2023/07/28 11:56:33;;;;;;;28.35;6.03;;;;;;;;;;4983228;28;20050;-65
2023/07/28 11:59:02;;;;;;;35.33;5.88;;;;;;;;;;4989887;28;20585;-65
2023/07/28 12:01:29;;;;;;;33.15;6.95;;;;;;;;;;4982720;28;20059;-64
2023/07/28 12:03:56;;;;;;;41.83;6.90;;;;;;;;;;4983458;28;20069;-65
2023/07/28 12:06:24;;;;;;;462.13;44.55;;;;;;;;;;4979571;28;20050;-63
2023/07/28 12:09:04;;;;;;;27.40;5.95;;;;;;;;;;4980574;28;20042;-63
2023/07/28 12:11:33;;;;;;;39.45;6.88;;;;;;;;;;4982555;28;20470;-66
2023/07/28 12:14:03;;;;;;;37.78;10.02;;;;;;;;;;4982434;28;20041;-71
2023/07/28 12:16:42;;;;;;;41.13;24.45;;;;;;;;;;4986756;28;20050;-65
2023/07/28 12:19:14;;;;;;;73.43;54.60;;;;;;;;;;4983931;28;20046;-65
2023/07/28 12:21:41;;;;;;;64.13;52.20;;;;;;;;;;4982414;28;20570;-68
2023/07/28 12:24:07;;;;;;;86.22;48.00;;;;;;;;;;4980690;28;20126;-65
2023/07/28 12:26:34;;;;;;;58.22;46.25;;;;;;;;;;4982146;28;20073;-64
2023/07/28 12:29:05;;;;;;;56.35;40.40;;;;;;;;;;4982077;28;20054;-67
2023/07/28 12:31:35;;;;;;;43.70;38.42;;;;;;;;;;4983180;28;20507;-66
2023/07/28 12:34:11;;;;;;;56.67;34.45;;;;;;;;;;4989193;28;20042;-68
2023/07/28 12:36:51;;;;;;;57.33;38.72;;;;;;;;;;4983491;28;20407;-61
2023/07/28 12:39:20;;;;;;;96.50;41.95;;;;;;;;;;4981359;28;20137;-60
2023/07/28 12:41:50;;;;;;;54.92;38.03;;;;;;;;;;4980057;28;20039;-65
2023/07/28 12:44:40;;;;;;;58.22;37.45;;;;;;;;;;4976229;28;20098;-65
2023/07/28 12:47:09;;;;;;;;;;;;;;;;;;4985125;28;20043;-60
2023/07/28 12:49:36;;;;;;;80.38;72.30;;;;;;;;;;4983938;28;19922;-64
2023/07/28 12:52:06;;;;;;;76.10;68.20;;;;;;;;;;4981729;28;20046;-64
2023/07/28 12:54:33;;;;;;;98.03;87.70;;;;;;;;;;4982596;28;20134;-59
2023/07/28 12:57:12;;;;;;;111.30;101.15;;;;;;;;;;4982911;28;20431;-63
2023/07/28 12:59:39;;;;;;;459.05;426.63;;;;;;;;;;4963168;28;20050;-63
2023/07/28 13:02:09;;;;;;;480.58;443.85;;;;;;;;;;4985915;28;20066;-64
2023/07/28 13:04:36;;;;;;;517.72;479.05;;;;;;;;;;4988301;28;20034;-64
2023/07/28 13:07:03;;;;;;;468.77;434.92;;;;;;;;;;4983826;28;20467;-64
2023/07/28 13:09:32;;;;;;;475.73;440.52;;;;;;;;;;4986313;28;20472;-68
2023/07/28 13:12:02;;;;;;;495.33;460.25;;;;;;;;;;4985009;28;20745;-67
2023/07/28 13:14:32;;;;;;;469.05;435.63;;;;;;;;;;4983163;28;20047;-66
2023/07/28 13:16:58;;;;;;;459.05;427.58;;;;;;;;;;4990232;28;20070;-62
2023/07/28 13:19:25;;;;;;;483.17;448.80;;;;;;;;;;4991825;28;20579;-60
2023/07/28 13:21:52;;;;;;;456.48;423.23;;;;;;;;;;4985012;28;20559;-61
2023/07/28 13:24:18;;;;;;;481.13;441.85;;;;;;;;;;4984355;28;20046;-63
2023/07/28 13:26:45;;;;;;;459.27;427.08;;;;;;;;;;4979011;28;20057;-62
2023/07/28 13:29:11;;;;;;;463.65;431.25;;;;;;;;;;4978829;28;20404;-63
2023/07/28 13:31:38;;;;;;;473.77;439.02;;;;;;;;;;4988593;28;20157;-61
2023/07/28 13:34:05;;;;;;;479.83;444.00;;;;;;;;;;4984232;28;20073;-62
2023/07/28 13:36:32;;;;;;;450.63;417.17;;;;;;;;;;4985087;28;20048;-62
2023/07/28 13:38:58;;;;;;;484.77;449.13;;;;;;;;;;4984567;28;20110;-65
2023/07/28 13:41:25;;;;;;;612.72;566.00;;;;;;;;;;4986076;28;20042;-64
2023/07/28 13:43:52;;;;;;;710.25;656.45;;;;;;;;;;4983262;28;20051;-65
2023/07/28 13:46:18;;;;;;;713.78;658.45;;;;;;;;;;4989404;28;20046;-65
2023/07/28 13:48:45;;;;;;;710.50;655.53;;;;;;;;;;4986532;28;20047;-64
2023/07/28 13:51:19;;;;;;;716.83;657.38;;;;;;;;;;4983740;28;20508;-63
2023/07/28 13:53:56;;;;;;;691.58;638.92;;;;;;;;;;4985181;28;20452;-63
2023/07/28 13:56:25;;;;;;;694.03;639.88;;;;;;;;;;4985518;28;20045;-63
2023/07/28 13:58:52;;;;;;;689.88;636.05;;;;;;;;;;4983467;28;20039;-63
2023/07/28 14:01:19;;;;;;;682.88;629.78;;;;;;;;;;4989174;28;20042;-64
2023/07/28 14:03:45;;;;;;;678.47;625.88;;;;;;;;;;4985478;28;20511;-63
2023/07/28 14:06:12;;;;;;;683.05;629.17;;;;;;;;;;4999993;28;20054;-64
2023/07/28 14:08:39;;;;;;;674.80;622.33;;;;;;;;;;4984993;28;20064;-62
2023/07/28 14:11:05;;;;;;;688.50;636.42;;;;;;;;;;4984984;28;20058;-63
2023/07/28 14:13:35;;;;;;;677.90;626.67;;;;;;;;;;4976923;28;20057;-63
2023/07/28 14:16:01;;;;;;;672.40;621.70;;;;;;;;;;4989378;28;20043;-63
2023/07/28 14:18:28;;;;;;;703.72;646.50;;;;;;;;;;4984921;28;20533;-63
2023/07/28 14:20:55;;;;;;;662.97;612.60;;;;;;;;;;4990047;28;20540;-63
2023/07/28 14:23:25;;;;;;;674.95;623.58;;;;;;;;;;5000582;28;20047;-63
2023/07/28 14:25:52;;;;;;;694.45;639.70;;;;;;;;;;4986138;28;20050;-62
2023/07/28 14:28:19;;;;;;;681.10;627.92;;;;;;;;;;4982473;28;20110;-63
2023/07/28 14:30:46;;;;;;;678.17;624.83;;;;;;;;;;4968834;28;20049;-63